Terminal Aerodrome Forecast
Issued by NWS North Platte, NE

Home | Current Version | Previous Version | Text Only | Print | Product List | Glossary On
Versions: 1 2 3 4 5 6 7 8 9 10 11
000
FTUS43 KLBF 201134
TAFVTN
TAF
KVTN 201134Z 2012/2112 34004KT P6SM BKN250
     FM201900 01009KT P6SM BKN200
     FM210600 01007KT P6SM OVC050
     FM211000 02010KT P6SM OVC025=

USA.gov is the U.S. government's official web portal to all federal, state and local government web resources and services.